createdAt,value
2022-08-03T00:02:19.753Z,24.59
2022-08-03T00:04:48.096Z,24.05
2022-08-03T00:07:16.593Z,24.37
2022-08-03T00:09:46.359Z,24.37
2022-08-03T00:12:14.919Z,24.06
2022-08-03T00:14:43.659Z,23.95
2022-08-03T00:17:12.342Z,24.41
2022-08-03T00:19:40.557Z,24.48
2022-08-03T00:22:08.895Z,24.00
2022-08-03T00:24:37.372Z,23.56
2022-08-03T00:27:07.048Z,24.45
2022-08-03T00:29:57.436Z,24.34
2022-08-03T00:32:24.067Z,24.47
2022-08-03T00:34:57.738Z,24.55
2022-08-03T00:37:41.697Z,24.62
2022-08-03T00:40:12.779Z,24.42
2022-08-03T00:42:53.831Z,24.38
2022-08-03T00:45:24.063Z,24.39
2022-08-03T00:47:52.504Z,24.35
2022-08-03T00:50:23.044Z,24.29
2022-08-03T00:52:51.952Z,24.22
2022-08-03T00:55:22.865Z,24.35
2022-08-03T00:57:52.969Z,24.31
2022-08-03T01:00:25.165Z,24.31
2022-08-03T01:02:54.330Z,24.17
2022-08-03T01:05:23.164Z,24.19
2022-08-03T01:08:03.526Z,24.18
2022-08-03T01:10:39.609Z,24.16
2022-08-03T01:14:03.525Z,24.13
2022-08-03T01:16:19.135Z,24.17
2022-08-03T01:18:54.284Z,24.07
2022-08-03T01:21:26.393Z,24.16
2022-08-03T01:24:08.511Z,24.12
2022-08-03T01:26:57.195Z,24.08
2022-08-03T01:29:56.737Z,24.02
2022-08-03T01:32:58.802Z,24.00
2022-08-03T01:35:21.862Z,23.93
2022-08-03T01:37:54.363Z,23.81
2022-08-03T01:40:23.865Z,24.03
2022-08-03T01:42:53.197Z,24.08
2022-08-03T01:45:24.088Z,23.94
2022-08-03T01:47:53.128Z,23.85
2022-08-03T01:50:25.522Z,23.81
2022-08-03T01:52:54.534Z,23.44
2022-08-03T01:55:24.142Z,23.44
2022-08-03T01:58:05.316Z,23.51
2022-08-03T02:00:37.515Z,23.47
2022-08-03T02:03:07.447Z,23.41
2022-08-03T02:05:36.520Z,23.40
2022-08-03T02:08:06.652Z,23.42
2022-08-03T02:10:37.549Z,23.41
2022-08-03T02:13:09.057Z,23.49
2022-08-03T02:15:39.850Z,23.42
2022-08-03T02:18:10.338Z,23.54
2022-08-03T02:20:39.680Z,23.54
2022-08-03T02:23:08.619Z,23.36
2022-08-03T02:25:43.230Z,23.32
2022-08-03T02:28:13.047Z,23.25
2022-08-03T02:30:44.525Z,23.27
2022-08-03T02:33:19.742Z,23.07
2022-08-03T02:35:48.870Z,23.29
2022-08-03T02:38:21.777Z,23.26
2022-08-03T02:40:51.553Z,23.30
2022-08-03T02:43:21.953Z,23.13
2022-08-03T02:45:52.878Z,22.92
2022-08-03T02:48:23.833Z,22.88
2022-08-03T02:50:53.209Z,22.95
2022-08-03T02:53:22.836Z,23.18
2022-08-03T02:55:51.837Z,23.14
2022-08-03T02:58:22.362Z,23.01
2022-08-03T03:00:52.869Z,23.02
2022-08-03T03:03:22.599Z,22.94
2022-08-03T03:05:57.356Z,23.18
2022-08-03T03:08:28.245Z,23.14
2022-08-03T03:10:59.179Z,22.85
2022-08-03T03:13:28.748Z,22.66
2022-08-03T03:16:01.573Z,22.73
2022-08-03T03:18:30.405Z,22.62
2022-08-03T03:20:59.502Z,22.81
2022-08-03T03:23:28.461Z,23.02
2022-08-03T03:25:58.590Z,22.96
2022-08-03T03:28:27.019Z,23.10
2022-08-03T03:30:55.330Z,22.70
2022-08-03T03:33:25.889Z,22.77
2022-08-03T03:35:56.534Z,22.92
2022-08-03T03:38:24.887Z,22.94
2022-08-03T03:40:53.194Z,23.03
2022-08-03T03:43:21.503Z,22.93
2022-08-03T03:45:50.025Z,22.96
2022-08-03T03:48:18.710Z,22.91
2022-08-03T03:50:48.601Z,22.85
2022-08-03T03:53:16.772Z,22.87
2022-08-03T03:55:57.769Z,22.81
2022-08-03T03:58:32.178Z,23.03
2022-08-03T04:01:00.766Z,22.88
2022-08-03T04:03:29.348Z,22.82
2022-08-03T04:06:16.571Z,22.80
2022-08-03T04:09:02.257Z,22.75
2022-08-03T04:11:33.873Z,22.83
2022-08-03T04:14:06.204Z,22.83
2022-08-03T04:16:38.800Z,22.89
2022-08-03T04:19:11.852Z,22.92
2022-08-03T04:21:42.829Z,22.78
2022-08-03T04:24:12.037Z,23.03
2022-08-03T04:26:41.859Z,23.25
2022-08-03T04:29:12.015Z,23.25
2022-08-03T04:31:41.171Z,23.28
2022-08-03T04:34:09.634Z,23.40
2022-08-03T04:36:41.531Z,23.39
2022-08-03T04:39:12.183Z,23.61
2022-08-03T04:42:04.384Z,23.44
2022-08-03T04:44:33.121Z,23.73
2022-08-03T04:47:01.817Z,23.97
2022-08-03T04:49:30.692Z,24.23
2022-08-03T04:52:00.539Z,24.05
2022-08-03T04:54:28.825Z,23.98
2022-08-03T04:56:57.107Z,23.93
2022-08-03T04:59:25.465Z,24.43
2022-08-03T05:01:53.664Z,24.39
2022-08-03T05:04:21.923Z,24.53
2022-08-03T05:06:54.864Z,24.77
2022-08-03T05:09:49.986Z,24.94
2022-08-03T05:12:13.047Z,24.80
2022-08-03T05:14:41.353Z,24.78
2022-08-03T05:17:09.788Z,25.41
2022-08-03T05:19:38.009Z,25.17
2022-08-03T05:22:06.182Z,25.59
2022-08-03T05:24:35.781Z,25.53
2022-08-03T05:27:03.974Z,25.28
2022-08-03T05:29:32.191Z,25.41
2022-08-03T05:32:06.240Z,25.50
2022-08-03T05:34:36.407Z,25.37
2022-08-03T05:37:04.629Z,24.96
2022-08-03T05:39:32.831Z,25.49
2022-08-03T05:42:02.649Z,25.15
2022-08-03T05:44:31.787Z,24.81
2022-08-03T05:47:00.908Z,25.49
2022-08-03T05:49:29.340Z,25.33
2022-08-03T05:51:59.988Z,25.66
2022-08-03T05:54:56.452Z,25.97
2022-08-03T05:57:27.582Z,25.76
2022-08-03T05:59:58.340Z,25.53
2022-08-03T06:02:27.198Z,26.11
2022-08-03T06:04:55.460Z,26.34
2022-08-03T06:07:23.971Z,25.98
2022-08-03T06:10:33.940Z,26.00
2022-08-03T06:12:42.260Z,25.96
2022-08-03T06:15:11.796Z,26.07
2022-08-03T06:17:47.367Z,26.66
2022-08-03T06:20:16.907Z,26.54
2022-08-03T06:22:50.973Z,26.46
2022-08-03T06:25:28.978Z,26.81
2022-08-03T06:27:59.513Z,27.12
2022-08-03T06:30:27.859Z,26.58
2022-08-03T06:32:56.027Z,27.07
2022-08-03T06:35:24.612Z,26.91
2022-08-03T06:37:53.048Z,27.25
2022-08-03T06:40:28.587Z,27.54
2022-08-03T06:42:59.028Z,27.65
2022-08-03T06:45:31.847Z,27.63
2022-08-03T06:48:05.395Z,27.77
2022-08-03T06:50:33.896Z,27.93
2022-08-03T06:53:02.391Z,27.85
2022-08-03T06:55:31.063Z,27.86
2022-08-03T06:58:03.618Z,28.02
2022-08-03T07:00:32.262Z,28.13
2022-08-03T07:03:00.460Z,28.23
2022-08-03T07:05:28.931Z,28.39
2022-08-03T07:07:59.286Z,28.57
2022-08-03T07:10:27.750Z,28.73
2022-08-03T07:12:56.999Z,28.88
2022-08-03T07:15:53.970Z,28.60
2022-08-03T07:18:15.269Z,28.76
2022-08-03T07:20:44.901Z,29.15
2022-08-03T07:23:19.311Z,29.18
2022-08-03T07:25:47.606Z,28.94
2022-08-03T07:28:15.905Z,29.18
2022-08-03T07:30:45.476Z,29.20
2022-08-03T07:33:13.784Z,29.39
2022-08-03T07:35:42.026Z,29.34
2022-08-03T07:38:10.201Z,29.45
2022-08-03T07:40:42.029Z,29.53
2022-08-03T07:43:12.767Z,29.93
2022-08-03T07:45:40.949Z,29.22
2022-08-03T07:48:12.519Z,28.96
2022-08-03T07:50:41.486Z,28.62
2022-08-03T07:53:09.692Z,28.66
2022-08-03T07:55:37.851Z,28.62
2022-08-03T07:58:07.727Z,28.94
2022-08-03T08:00:36.070Z,29.25
2022-08-03T08:03:04.903Z,29.45
2022-08-03T08:05:34.630Z,29.59
2022-08-03T08:08:03.451Z,29.89
2022-08-03T08:10:32.753Z,29.69
2022-08-03T08:13:01.791Z,29.71
2022-08-03T08:15:30.440Z,29.88
2022-08-03T08:17:59.958Z,29.85
2022-08-03T08:20:31.279Z,29.72
2022-08-03T08:23:02.822Z,30.22
2022-08-03T08:25:32.694Z,30.04
2022-08-03T08:28:29.830Z,29.93
2022-08-03T08:30:52.110Z,30.38
2022-08-03T08:33:23.317Z,30.43
2022-08-03T08:35:54.216Z,30.27
2022-08-03T08:38:24.258Z,30.18
2022-08-03T08:40:52.554Z,30.21
2022-08-03T08:43:20.837Z,30.42
2022-08-03T08:45:51.146Z,30.70
2022-08-03T08:48:22.498Z,30.38
2022-08-03T08:50:53.555Z,30.78
2022-08-03T08:53:27.170Z,31.18
2022-08-03T08:56:00.074Z,31.46
2022-08-03T08:58:31.417Z,30.83
2022-08-03T09:01:00.171Z,30.40
2022-08-03T09:03:29.704Z,31.22
2022-08-03T09:06:00.563Z,31.28
2022-08-03T09:08:31.102Z,31.49
2022-08-03T09:10:59.464Z,31.05
2022-08-03T09:13:29.179Z,31.16
2022-08-03T09:16:16.267Z,31.61
2022-08-03T09:18:45.722Z,32.36
2022-08-03T09:21:34.849Z,32.68
2022-08-03T09:24:16.498Z,31.99
2022-08-03T09:26:54.216Z,31.63
2022-08-03T09:29:23.435Z,31.95
2022-08-03T09:32:01.651Z,33.11
2022-08-03T09:34:30.020Z,32.32
2022-08-03T09:36:59.011Z,32.77
2022-08-03T09:39:41.201Z,32.09
2022-08-03T09:42:11.497Z,33.03
2022-08-03T09:44:44.699Z,32.81
2022-08-03T09:47:14.590Z,33.08
2022-08-03T09:49:44.729Z,33.15
2022-08-03T09:52:32.331Z,32.30
2022-08-03T09:56:30.813Z,33.01
2022-08-03T09:58:06.520Z,33.95
2022-08-03T10:00:55.104Z,33.62
2022-08-03T10:03:24.266Z,33.54
2022-08-03T10:05:59.394Z,33.33
2022-08-03T10:08:28.159Z,33.28
2022-08-03T10:10:58.754Z,34.20
2022-08-03T10:13:27.030Z,34.75
2022-08-03T10:16:23.182Z,35.18
2022-08-03T10:18:43.440Z,34.22
2022-08-03T10:21:14.539Z,34.43
2022-08-03T10:23:43.115Z,34.64
2022-08-03T10:26:15.071Z,33.97
2022-08-03T10:28:50.253Z,34.15
2022-08-03T10:31:19.820Z,35.35
2022-08-03T10:33:53.214Z,35.44
2022-08-03T10:36:25.130Z,35.13
2022-08-03T10:38:54.020Z,35.44
2022-08-03T10:41:25.990Z,34.77
2022-08-03T10:43:58.521Z,35.18
2022-08-03T10:46:27.800Z,35.51
2022-08-03T10:48:56.822Z,35.54
2022-08-03T10:51:25.559Z,34.84
2022-08-03T10:53:55.370Z,34.84
2022-08-03T10:56:59.537Z,35.36
2022-08-03T11:00:00.522Z,34.84
2022-08-03T11:03:03.725Z,34.08
2022-08-03T11:05:34.187Z,34.44
2022-08-03T11:08:37.181Z,35.72
2022-08-03T11:11:28.586Z,36.09
2022-08-03T11:14:04.631Z,36.62
2022-08-03T11:16:36.200Z,35.42
2022-08-03T11:19:06.037Z,35.78
2022-08-03T11:22:07.338Z,35.85
2022-08-03T11:25:53.645Z,36.42
2022-08-03T11:28:28.509Z,36.08
2022-08-03T11:30:58.244Z,37.89
2022-08-03T11:33:35.516Z,37.19
2022-08-03T11:36:03.867Z,36.52
2022-08-03T11:38:32.035Z,35.82
2022-08-03T11:41:02.725Z,36.62
2022-08-03T11:43:46.971Z,36.60
2022-08-03T11:46:28.476Z,37.74
2022-08-03T11:49:10.283Z,36.97
2022-08-03T11:51:40.496Z,36.87
2022-08-03T11:54:09.237Z,37.61
2022-08-03T11:56:47.692Z,38.02
2022-08-03T11:59:21.780Z,38.28
2022-08-03T12:01:52.148Z,36.88
2022-08-03T12:04:20.440Z,37.14
2022-08-03T12:07:01.181Z,36.99
2022-08-03T12:09:29.374Z,37.85
2022-08-03T12:12:00.945Z,37.95
2022-08-03T12:14:49.276Z,38.23
2022-08-03T12:17:20.362Z,38.51
2022-08-03T12:19:48.753Z,38.56
2022-08-03T12:22:17.917Z,38.96
2022-08-03T12:24:47.465Z,38.82
2022-08-03T12:27:24.575Z,39.22
2022-08-03T12:29:57.215Z,39.99
2022-08-03T12:32:29.167Z,39.16
2022-08-03T12:35:01.031Z,38.50
2022-08-03T12:37:30.302Z,38.34
2022-08-03T12:40:07.703Z,39.30
2022-08-03T12:42:40.355Z,38.31
2022-08-03T12:45:24.477Z,38.96
2022-08-03T12:47:58.222Z,38.23
2022-08-03T12:50:28.270Z,39.15
2022-08-03T12:52:57.191Z,37.56
2022-08-03T12:55:27.700Z,38.09
2022-08-03T12:57:55.913Z,39.23
2022-08-03T13:00:29.525Z,39.52
2022-08-03T13:03:38.937Z,39.93
2022-08-03T13:05:54.373Z,40.41
2022-08-03T13:08:23.952Z,39.62
2022-08-03T13:10:52.691Z,39.23
2022-08-03T13:13:39.244Z,38.63
2022-08-03T13:16:07.496Z,39.04
2022-08-03T13:18:37.102Z,39.07
2022-08-03T13:21:06.313Z,38.77
2022-08-03T13:23:34.483Z,39.74
2022-08-03T13:26:02.650Z,39.93
2022-08-03T13:28:30.899Z,40.35
2022-08-03T13:30:59.127Z,41.09
2022-08-03T13:33:28.347Z,41.08
2022-08-03T13:35:58.131Z,39.78
2022-08-03T13:38:27.237Z,38.93
2022-08-03T13:40:56.820Z,40.31
2022-08-03T13:43:25.370Z,40.48
2022-08-03T13:45:57.736Z,40.41
2022-08-03T13:48:36.886Z,40.77
2022-08-03T13:51:22.255Z,40.13
2022-08-03T13:53:52.299Z,40.59
2022-08-03T13:56:20.777Z,40.98
2022-08-03T13:58:49.090Z,40.03
2022-08-03T14:01:18.570Z,40.40
2022-08-03T14:03:54.179Z,40.36
2022-08-03T14:06:24.099Z,41.13
2022-08-03T14:08:52.732Z,41.29
2022-08-03T14:11:21.027Z,40.56
2022-08-03T14:13:49.210Z,40.28
2022-08-03T14:16:17.423Z,40.87
2022-08-03T14:18:45.944Z,40.53
2022-08-03T14:21:14.553Z,40.88
2022-08-03T14:23:44.132Z,40.88
2022-08-03T14:26:14.597Z,41.25
2022-08-03T14:28:42.946Z,41.45
2022-08-03T14:31:15.486Z,41.20
2022-08-03T14:33:59.522Z,40.26
2022-08-03T14:36:27.779Z,40.40
2022-08-03T14:39:01.253Z,39.85
2022-08-03T14:41:29.781Z,40.44
2022-08-03T14:44:01.426Z,40.52
2022-08-03T14:46:31.291Z,40.02
2022-08-03T14:50:10.423Z,40.09
2022-08-03T14:51:51.437Z,40.68
2022-08-03T14:54:23.729Z,40.69
2022-08-03T14:56:52.039Z,40.75
2022-08-03T14:59:20.314Z,40.85
2022-08-03T15:02:05.976Z,41.08
2022-08-03T15:04:35.893Z,40.37
2022-08-03T15:07:04.369Z,40.04
2022-08-03T15:09:34.025Z,40.58
2022-08-03T15:12:02.241Z,40.22
2022-08-03T15:14:33.190Z,39.62
2022-08-03T15:17:03.050Z,39.31
2022-08-03T15:20:03.517Z,39.13
2022-08-03T15:22:20.826Z,39.31
2022-08-03T15:24:56.271Z,39.22
2022-08-03T15:27:24.709Z,39.98
2022-08-03T15:30:06.671Z,39.09
2022-08-03T15:32:38.437Z,40.28
2022-08-03T15:35:07.364Z,39.94
2022-08-03T15:37:36.630Z,40.10
2022-08-03T15:40:07.358Z,39.32
2022-08-03T15:42:35.701Z,39.02
2022-08-03T15:45:03.924Z,38.66
2022-08-03T15:47:32.154Z,39.44
2022-08-03T15:50:00.362Z,39.56
2022-08-03T15:52:28.598Z,39.55
2022-08-03T15:54:56.848Z,39.77
2022-08-03T15:57:26.591Z,40.21
2022-08-03T15:59:54.820Z,40.32
2022-08-03T16:02:23.004Z,39.46
2022-08-03T16:04:52.298Z,39.31
2022-08-03T16:07:41.194Z,39.04
2022-08-03T16:10:30.658Z,37.90
2022-08-03T16:13:00.639Z,38.19
2022-08-03T16:15:29.181Z,38.14
2022-08-03T16:17:57.408Z,38.48
2022-08-03T16:20:31.352Z,38.65
2022-08-03T16:23:05.580Z,38.87
2022-08-03T16:25:40.098Z,38.79
2022-08-03T16:28:14.434Z,37.84
2022-08-03T16:30:45.634Z,37.84
2022-08-03T16:33:17.178Z,37.63
2022-08-03T16:35:46.894Z,37.26
2022-08-03T16:38:18.758Z,37.40
2022-08-03T16:40:51.675Z,37.78
2022-08-03T16:43:22.571Z,37.16
2022-08-03T16:45:50.971Z,36.79
2022-08-03T16:48:19.739Z,37.28
2022-08-03T16:50:48.711Z,36.96
2022-08-03T16:53:18.641Z,36.93
2022-08-03T16:56:02.982Z,36.77
2022-08-03T16:58:42.075Z,36.39
2022-08-03T17:01:21.500Z,36.61
2022-08-03T17:04:01.622Z,36.73
2022-08-03T17:06:34.132Z,36.05
2022-08-03T17:09:09.107Z,36.10
2022-08-03T17:11:43.086Z,36.03
2022-08-03T17:14:14.816Z,36.21
2022-08-03T17:16:52.197Z,35.84
2022-08-03T17:19:23.699Z,36.59
2022-08-03T17:21:58.442Z,36.28
2022-08-03T17:24:30.166Z,35.61
2022-08-03T17:27:02.112Z,35.46
2022-08-03T17:29:35.017Z,35.70
2022-08-03T17:32:09.695Z,34.93
2022-08-03T17:34:39.565Z,35.15
2022-08-03T17:37:27.321Z,35.25
2022-08-03T17:39:59.105Z,34.89
2022-08-03T17:42:38.813Z,34.76
2022-08-03T17:45:15.947Z,34.85
2022-08-03T17:47:44.382Z,34.81
2022-08-03T17:50:25.254Z,35.34
2022-08-03T17:53:07.414Z,34.62
2022-08-03T17:55:56.146Z,34.25
2022-08-03T17:58:41.229Z,34.28
2022-08-03T18:02:03.647Z,33.89
2022-08-03T18:04:30.109Z,33.44
2022-08-03T18:07:11.575Z,33.11
2022-08-03T18:10:03.277Z,32.79
2022-08-03T18:12:47.792Z,32.59
2022-08-03T18:15:25.482Z,32.58
2022-08-03T18:17:58.475Z,32.53
2022-08-03T18:20:41.143Z,32.41
2022-08-03T18:23:11.426Z,32.20
2022-08-03T18:25:58.178Z,32.16
2022-08-03T18:28:30.212Z,31.88
2022-08-03T18:30:59.265Z,31.93
2022-08-03T18:34:19.463Z,31.80
2022-08-03T18:36:21.971Z,31.91
2022-08-03T18:39:00.290Z,31.85
2022-08-03T18:41:33.334Z,31.74
2022-08-03T18:44:07.038Z,31.64
2022-08-03T18:46:49.222Z,31.55
2022-08-03T18:49:33.955Z,31.43
2022-08-03T18:52:12.074Z,31.24
2022-08-03T18:55:02.368Z,31.15
2022-08-03T18:57:41.063Z,31.00
2022-08-03T19:00:14.250Z,30.94
2022-08-03T19:02:48.688Z,30.82
2022-08-03T19:08:14.875Z,30.53
2022-08-03T19:10:57.812Z,30.51
2022-08-03T19:13:37.398Z,30.60
2022-08-03T19:16:10.814Z,30.53
2022-08-03T19:18:42.756Z,30.46
2022-08-03T19:21:15.854Z,30.60
2022-08-03T19:23:47.006Z,30.30
2022-08-03T19:26:30.371Z,30.21
2022-08-03T19:29:00.226Z,29.69
2022-08-03T19:31:31.069Z,29.99
2022-08-03T19:34:03.933Z,30.26
2022-08-03T19:36:40.377Z,29.86
2022-08-03T19:39:12.817Z,29.82
2022-08-03T19:41:43.097Z,29.62
2022-08-03T19:44:25.467Z,29.05
2022-08-03T19:46:55.646Z,29.29
2022-08-03T19:49:57.793Z,29.18
2022-08-03T19:52:20.841Z,29.14
2022-08-03T19:54:54.634Z,29.09
2022-08-03T19:57:25.464Z,28.91
2022-08-03T19:59:56.836Z,28.45
2022-08-03T20:02:26.265Z,28.86
2022-08-03T20:04:57.147Z,28.94
2022-08-03T20:07:27.858Z,28.73
2022-08-03T20:09:57.057Z,28.73
2022-08-03T20:12:28.886Z,27.99
2022-08-03T20:14:59.366Z,28.29
2022-08-03T20:17:56.971Z,28.12
2022-08-03T20:20:23.487Z,28.38
2022-08-03T20:22:57.579Z,28.12
2022-08-03T20:25:38.349Z,28.08
2022-08-03T20:28:13.429Z,28.02
2022-08-03T20:30:44.266Z,27.94
2022-08-03T20:33:18.536Z,27.57
2022-08-03T20:35:49.648Z,27.03
2022-08-03T20:38:20.532Z,27.39
2022-08-03T20:40:56.357Z,27.49
2022-08-03T20:43:27.599Z,27.38
2022-08-03T20:45:59.762Z,27.49
2022-08-03T20:48:48.544Z,27.05
2022-08-03T20:51:20.121Z,27.14
2022-08-03T20:54:28.756Z,27.14
2022-08-03T20:56:56.704Z,27.44
2022-08-03T20:59:28.889Z,27.53
2022-08-03T21:01:58.810Z,27.40
2022-08-03T21:04:27.257Z,27.27
2022-08-03T21:07:00.748Z,27.22
2022-08-03T21:09:39.937Z,27.00
2022-08-03T21:12:15.281Z,27.22
2022-08-03T21:13:01.260Z,30.65
2022-08-03T21:14:52.402Z,27.29
2022-08-03T21:17:38.350Z,27.38
2022-08-03T21:20:09.545Z,27.56
2022-08-03T21:22:39.351Z,27.41
2022-08-03T21:25:10.322Z,27.47
2022-08-03T21:27:39.062Z,27.43
2022-08-03T21:30:10.354Z,27.55
2022-08-03T21:32:40.440Z,27.50
2022-08-03T21:35:10.789Z,27.38
2022-08-03T21:37:40.795Z,27.06
2022-08-03T21:40:13.576Z,27.06
2022-08-03T21:42:44.156Z,27.16
2022-08-03T21:45:17.396Z,27.28
2022-08-03T21:47:47.169Z,27.39
2022-08-03T21:50:16.211Z,27.24
2022-08-03T21:52:46.437Z,27.01
2022-08-03T21:55:18.666Z,26.75
2022-08-03T21:57:53.343Z,26.69
2022-08-03T22:00:23.276Z,26.76
2022-08-03T22:02:55.264Z,27.06
2022-08-03T22:05:42.591Z,26.86
2022-08-03T22:08:13.371Z,26.55
2022-08-03T22:10:44.999Z,26.74
2022-08-03T22:13:13.690Z,26.76
2022-08-03T22:15:42.166Z,26.51
2022-08-03T22:18:11.115Z,26.52
2022-08-03T22:20:39.398Z,26.14
2022-08-03T22:23:08.250Z,26.21
2022-08-03T22:25:37.986Z,25.90
2022-08-03T22:28:10.251Z,26.06
2022-08-03T22:30:39.481Z,26.10
2022-08-03T22:33:10.949Z,25.99
2022-08-03T22:35:47.376Z,25.81
2022-08-03T22:38:17.744Z,25.94
2022-08-03T22:40:46.250Z,25.84
2022-08-03T22:43:16.542Z,25.95
2022-08-03T22:46:09.292Z,26.08
2022-08-03T22:48:35.376Z,26.15
2022-08-03T22:51:09.731Z,25.67
2022-08-03T22:53:38.182Z,25.90
2022-08-03T22:56:06.431Z,25.31
2022-08-03T22:58:36.092Z,25.89
2022-08-03T23:01:08.808Z,25.70
2022-08-03T23:03:59.277Z,25.68
2022-08-03T23:06:28.467Z,25.43
2022-08-03T23:08:56.869Z,25.42
2022-08-03T23:11:25.400Z,25.39
2022-08-03T23:13:56.977Z,25.85
2022-08-03T23:16:28.737Z,25.62
2022-08-03T23:18:59.310Z,25.51
2022-08-03T23:22:00.046Z,25.40
2022-08-03T23:24:26.124Z,25.31
2022-08-03T23:26:59.193Z,24.97
2022-08-03T23:29:30.449Z,25.33
2022-08-03T23:31:59.489Z,24.99
2022-08-03T23:34:46.721Z,24.91
2022-08-03T23:37:15.952Z,24.89
2022-08-03T23:39:46.474Z,24.66
2022-08-03T23:42:15.902Z,25.31
2022-08-03T23:44:46.130Z,24.89
2022-08-03T23:47:14.762Z,24.82
2022-08-03T23:49:43.060Z,25.09
2022-08-03T23:52:17.257Z,25.15
2022-08-03T23:54:54.354Z,24.88
2022-08-03T23:57:29.751Z,24.78
